sensor_id;sensor_type;location;lat;lon;timestamp;temperature;humidity
5059;DHT22;2548;52.050;11.036;2023-01-19T00:00:35;-3.80;99.90
5059;DHT22;2548;52.050;11.036;2023-01-19T00:03:03;-3.80;99.90
5059;DHT22;2548;52.050;11.036;2023-01-19T00:05:31;-3.80;99.90
5059;DHT22;2548;52.050;11.036;2023-01-19T00:07:58;-3.80;99.90
5059;DHT22;2548;52.050;11.036;2023-01-19T00:10:42;-3.90;99.90
5059;DHT22;2548;52.050;11.036;2023-01-19T00:13:09;-3.80;99.90
5059;DHT22;2548;52.050;11.036;2023-01-19T00:15:37;-3.90;99.90
5059;DHT22;2548;52.050;11.036;2023-01-19T00:18:04;-3.90;99.90
5059;DHT22;2548;52.050;11.036;2023-01-19T00:20:32;-3.90;99.90
5059;DHT22;2548;52.050;11.036;2023-01-19T00:23:00;-3.90;99.90
5059;DHT22;2548;52.050;11.036;2023-01-19T00:25:29;-3.90;99.90
5059;DHT22;2548;52.050;11.036;2023-01-19T00:27:59;-3.90;99.90
5059;DHT22;2548;52.050;11.036;2023-01-19T00:30:26;-3.80;99.90
5059;DHT22;2548;52.050;11.036;2023-01-19T00:32:54;-3.70;99.90
5059;DHT22;2548;52.050;11.036;2023-01-19T00:35:21;-3.60;99.90
5059;DHT22;2548;52.050;11.036;2023-01-19T00:37:49;-3.60;99.90
5059;DHT22;2548;52.050;11.036;2023-01-19T00:40:17;-3.60;99.90
5059;DHT22;2548;52.050;11.036;2023-01-19T00:42:44;-3.60;99.90
5059;DHT22;2548;52.050;11.036;2023-01-19T00:45:16;-3.50;99.90
5059;DHT22;2548;52.050;11.036;2023-01-19T00:47:45;-3.50;99.90
5059;DHT22;2548;52.050;11.036;2023-01-19T00:50:14;-3.60;99.90
5059;DHT22;2548;52.050;11.036;2023-01-19T00:52:43;-3.60;99.90
5059;DHT22;2548;52.050;11.036;2023-01-19T00:55:12;-3.60;99.90
5059;DHT22;2548;52.050;11.036;2023-01-19T00:57:41;-3.60;99.90
5059;DHT22;2548;52.050;11.036;2023-01-19T01:00:10;-3.70;99.90
5059;DHT22;2548;52.050;11.036;2023-01-19T01:02:41;-3.70;99.90
5059;DHT22;2548;52.050;11.036;2023-01-19T01:05:10;-3.80;99.90
5059;DHT22;2548;52.050;11.036;2023-01-19T01:07:38;-3.80;99.90
5059;DHT22;2548;52.050;11.036;2023-01-19T01:10:07;-3.80;99.90
5059;DHT22;2548;52.050;11.036;2023-01-19T01:12:35;-3.90;99.90
5059;DHT22;2548;52.050;11.036;2023-01-19T01:15:04;-3.90;99.90
5059;DHT22;2548;52.050;11.036;2023-01-19T01:17:32;-3.90;99.90
5059;DHT22;2548;52.050;11.036;2023-01-19T01:20:01;-3.90;99.90
5059;DHT22;2548;52.050;11.036;2023-01-19T01:22:30;-3.90;99.90
5059;DHT22;2548;52.050;11.036;2023-01-19T01:24:57;-3.90;99.90
5059;DHT22;2548;52.050;11.036;2023-01-19T01:27:24;-3.90;99.90
5059;DHT22;2548;52.050;11.036;2023-01-19T01:29:52;-3.80;99.90
5059;DHT22;2548;52.050;11.036;2023-01-19T01:32:19;-3.70;99.90
5059;DHT22;2548;52.050;11.036;2023-01-19T01:34:47;-3.60;99.90
5059;DHT22;2548;52.050;11.036;2023-01-19T01:37:15;-3.60;99.90
5059;DHT22;2548;52.050;11.036;2023-01-19T01:39:43;-3.50;99.90
5059;DHT22;2548;52.050;11.036;2023-01-19T01:42:15;-3.50;99.90
5059;DHT22;2548;52.050;11.036;2023-01-19T01:44:45;-3.60;99.90
5059;DHT22;2548;52.050;11.036;2023-01-19T01:47:22;-3.60;99.90
5059;DHT22;2548;52.050;11.036;2023-01-19T01:49:56;-3.60;99.90
5059;DHT22;2548;52.050;11.036;2023-01-19T01:52:28;-3.60;99.90
5059;DHT22;2548;52.050;11.036;2023-01-19T01:54:58;-3.70;99.90
5059;DHT22;2548;52.050;11.036;2023-01-19T01:57:26;-3.80;99.90
5059;DHT22;2548;52.050;11.036;2023-01-19T01:59:54;-3.80;99.90
5059;DHT22;2548;52.050;11.036;2023-01-19T02:02:24;-3.90;99.90
5059;DHT22;2548;52.050;11.036;2023-01-19T02:05:15;-3.90;99.90
5059;DHT22;2548;52.050;11.036;2023-01-19T02:07:48;-3.90;99.90
5059;DHT22;2548;52.050;11.036;2023-01-19T02:10:34;-3.90;99.90
5059;DHT22;2548;52.050;11.036;2023-01-19T02:13:20;-3.90;99.90
5059;DHT22;2548;52.050;11.036;2023-01-19T02:15:48;-3.90;99.90
5059;DHT22;2548;52.050;11.036;2023-01-19T02:18:17;-3.90;99.90
5059;DHT22;2548;52.050;11.036;2023-01-19T02:20:50;-3.90;99.90
5059;DHT22;2548;52.050;11.036;2023-01-19T02:23:27;-3.90;99.90
5059;DHT22;2548;52.050;11.036;2023-01-19T02:25:59;-3.80;99.90
5059;DHT22;2548;52.050;11.036;2023-01-19T02:28:27;-3.70;99.90
5059;DHT22;2548;52.050;11.036;2023-01-19T02:30:56;-3.50;99.90
5059;DHT22;2548;52.050;11.036;2023-01-19T02:33:23;-3.30;99.90
5059;DHT22;2548;52.050;11.036;2023-01-19T02:35:51;-3.20;99.90
5059;DHT22;2548;52.050;11.036;2023-01-19T02:38:20;-3.20;99.90
5059;DHT22;2548;52.050;11.036;2023-01-19T02:40:49;-3.10;99.90
5059;DHT22;2548;52.050;11.036;2023-01-19T02:43:18;-3.10;99.90
5059;DHT22;2548;52.050;11.036;2023-01-19T02:45:46;-3.20;99.90
5059;DHT22;2548;52.050;11.036;2023-01-19T02:48:15;-3.20;99.90
5059;DHT22;2548;52.050;11.036;2023-01-19T02:50:45;-3.20;99.90
5059;DHT22;2548;52.050;11.036;2023-01-19T02:53:38;-3.20;99.90
5059;DHT22;2548;52.050;11.036;2023-01-19T02:56:33;-3.30;99.90
5059;DHT22;2548;52.050;11.036;2023-01-19T02:59:06;-3.40;99.90
5059;DHT22;2548;52.050;11.036;2023-01-19T03:01:58;-3.40;99.90
5059;DHT22;2548;52.050;11.036;2023-01-19T03:04:32;-3.40;99.90
5059;DHT22;2548;52.050;11.036;2023-01-19T03:07:09;-3.40;99.90
5059;DHT22;2548;52.050;11.036;2023-01-19T03:09:41;-3.50;99.90
5059;DHT22;2548;52.050;11.036;2023-01-19T03:12:16;-3.50;99.90
5059;DHT22;2548;52.050;11.036;2023-01-19T03:14:47;-3.50;99.90
5059;DHT22;2548;52.050;11.036;2023-01-19T03:17:16;-3.50;99.90
5059;DHT22;2548;52.050;11.036;2023-01-19T03:19:47;-3.50;99.90
5059;DHT22;2548;52.050;11.036;2023-01-19T03:22:19;-3.50;99.90
5059;DHT22;2548;52.050;11.036;2023-01-19T03:24:49;-3.40;99.90
5059;DHT22;2548;52.050;11.036;2023-01-19T03:27:23;-3.40;99.90
5059;DHT22;2548;52.050;11.036;2023-01-19T03:29:52;-3.30;99.90
5059;DHT22;2548;52.050;11.036;2023-01-19T03:32:24;-3.20;99.90
5059;DHT22;2548;52.050;11.036;2023-01-19T03:34:56;-3.20;99.90
5059;DHT22;2548;52.050;11.036;2023-01-19T03:37:27;-3.10;99.90
5059;DHT22;2548;52.050;11.036;2023-01-19T03:39:57;-3.10;99.90
5059;DHT22;2548;52.050;11.036;2023-01-19T03:42:26;-3.00;99.90
5059;DHT22;2548;52.050;11.036;2023-01-19T03:44:55;-3.00;99.90
5059;DHT22;2548;52.050;11.036;2023-01-19T03:47:24;-3.00;99.90
5059;DHT22;2548;52.050;11.036;2023-01-19T03:49:52;-2.90;99.90
5059;DHT22;2548;52.050;11.036;2023-01-19T03:52:27;-2.90;99.90
5059;DHT22;2548;52.050;11.036;2023-01-19T03:54:54;-2.90;99.90
5059;DHT22;2548;52.050;11.036;2023-01-19T03:57:22;-2.90;99.90
5059;DHT22;2548;52.050;11.036;2023-01-19T03:59:51;-2.90;99.90
5059;DHT22;2548;52.050;11.036;2023-01-19T04:02:19;-2.90;99.90
5059;DHT22;2548;52.050;11.036;2023-01-19T04:04:46;-2.90;99.90
5059;DHT22;2548;52.050;11.036;2023-01-19T04:07:14;-2.90;99.90
5059;DHT22;2548;52.050;11.036;2023-01-19T04:09:41;-3.00;99.90
5059;DHT22;2548;52.050;11.036;2023-01-19T04:12:08;-3.00;99.90
5059;DHT22;2548;52.050;11.036;2023-01-19T04:14:36;-3.10;99.90
5059;DHT22;2548;52.050;11.036;2023-01-19T04:17:05;-3.10;99.90
5059;DHT22;2548;52.050;11.036;2023-01-19T04:19:32;-3.10;99.90
5059;DHT22;2548;52.050;11.036;2023-01-19T04:22:00;-3.20;99.90
5059;DHT22;2548;52.050;11.036;2023-01-19T04:24:27;-3.10;99.90
5059;DHT22;2548;52.050;11.036;2023-01-19T04:26:55;-3.10;99.90
5059;DHT22;2548;52.050;11.036;2023-01-19T04:29:22;-3.00;99.90
5059;DHT22;2548;52.050;11.036;2023-01-19T04:31:50;-3.00;99.90
5059;DHT22;2548;52.050;11.036;2023-01-19T04:34:19;-3.10;99.90
5059;DHT22;2548;52.050;11.036;2023-01-19T04:36:46;-3.10;99.90
5059;DHT22;2548;52.050;11.036;2023-01-19T04:39:16;-3.20;99.90
5059;DHT22;2548;52.050;11.036;2023-01-19T04:41:43;-3.20;99.90
5059;DHT22;2548;52.050;11.036;2023-01-19T04:44:11;-3.20;99.90
5059;DHT22;2548;52.050;11.036;2023-01-19T04:46:38;-3.30;99.90
5059;DHT22;2548;52.050;11.036;2023-01-19T04:49:05;-3.30;99.90
5059;DHT22;2548;52.050;11.036;2023-01-19T04:51:35;-3.30;99.90
5059;DHT22;2548;52.050;11.036;2023-01-19T04:54:02;-3.30;99.90
5059;DHT22;2548;52.050;11.036;2023-01-19T04:56:30;-3.30;99.90
5059;DHT22;2548;52.050;11.036;2023-01-19T04:58:57;-3.30;99.90
5059;DHT22;2548;52.050;11.036;2023-01-19T05:01:25;-3.40;99.90
5059;DHT22;2548;52.050;11.036;2023-01-19T05:03:53;-3.30;99.90
5059;DHT22;2548;52.050;11.036;2023-01-19T05:06:20;-3.30;99.90
5059;DHT22;2548;52.050;11.036;2023-01-19T05:08:49;-3.30;99.90
5059;DHT22;2548;52.050;11.036;2023-01-19T05:11:17;-3.30;99.90
5059;DHT22;2548;52.050;11.036;2023-01-19T05:13:44;-3.20;99.90
5059;DHT22;2548;52.050;11.036;2023-01-19T05:16:11;-3.10;99.90
5059;DHT22;2548;52.050;11.036;2023-01-19T05:18:39;-3.00;99.90
5059;DHT22;2548;52.050;11.036;2023-01-19T05:21:07;-2.90;99.90
5059;DHT22;2548;52.050;11.036;2023-01-19T05:23:34;-2.80;99.90
5059;DHT22;2548;52.050;11.036;2023-01-19T05:26:03;-2.90;99.90
5059;DHT22;2548;52.050;11.036;2023-01-19T05:28:31;-2.80;99.90
5059;DHT22;2548;52.050;11.036;2023-01-19T05:30:59;-2.90;99.90
5059;DHT22;2548;52.050;11.036;2023-01-19T05:33:26;-3.00;99.90
5059;DHT22;2548;52.050;11.036;2023-01-19T05:35:54;-3.00;99.90
5059;DHT22;2548;52.050;11.036;2023-01-19T05:38:23;-3.00;99.90
5059;DHT22;2548;52.050;11.036;2023-01-19T05:40:56;-3.00;99.90
5059;DHT22;2548;52.050;11.036;2023-01-19T05:43:25;-3.00;99.90
5059;DHT22;2548;52.050;11.036;2023-01-19T05:45:52;-3.00;99.90
5059;DHT22;2548;52.050;11.036;2023-01-19T05:48:20;-2.90;99.90
5059;DHT22;2548;52.050;11.036;2023-01-19T05:50:47;-2.90;99.90
5059;DHT22;2548;52.050;11.036;2023-01-19T05:53:15;-2.80;99.90
5059;DHT22;2548;52.050;11.036;2023-01-19T05:55:42;-2.80;99.90
5059;DHT22;2548;52.050;11.036;2023-01-19T05:58:10;-2.80;99.90
5059;DHT22;2548;52.050;11.036;2023-01-19T06:00:39;-2.80;99.90
5059;DHT22;2548;52.050;11.036;2023-01-19T06:03:06;-2.80;99.90
5059;DHT22;2548;52.050;11.036;2023-01-19T06:05:34;-2.80;99.90
5059;DHT22;2548;52.050;11.036;2023-01-19T06:08:03;-2.80;99.90
5059;DHT22;2548;52.050;11.036;2023-01-19T06:10:31;-2.70;99.90
5059;DHT22;2548;52.050;11.036;2023-01-19T06:12:58;-2.50;99.90
5059;DHT22;2548;52.050;11.036;2023-01-19T06:15:26;-2.40;99.90
5059;DHT22;2548;52.050;11.036;2023-01-19T06:17:55;-2.30;99.90
5059;DHT22;2548;52.050;11.036;2023-01-19T06:20:22;-2.20;99.90
5059;DHT22;2548;52.050;11.036;2023-01-19T06:22:49;-2.20;99.90
5059;DHT22;2548;52.050;11.036;2023-01-19T06:25:17;-2.30;99.90
5059;DHT22;2548;52.050;11.036;2023-01-19T06:27:44;-2.30;99.90
5059;DHT22;2548;52.050;11.036;2023-01-19T06:30:12;-2.30;99.90
5059;DHT22;2548;52.050;11.036;2023-01-19T06:32:40;-2.30;99.90
5059;DHT22;2548;52.050;11.036;2023-01-19T06:35:09;-2.30;99.90
5059;DHT22;2548;52.050;11.036;2023-01-19T06:37:37;-2.30;99.90
5059;DHT22;2548;52.050;11.036;2023-01-19T06:40:05;-2.40;99.90
5059;DHT22;2548;52.050;11.036;2023-01-19T06:42:33;-2.40;99.90
5059;DHT22;2548;52.050;11.036;2023-01-19T06:45:01;-2.30;99.90
5059;DHT22;2548;52.050;11.036;2023-01-19T06:47:28;-2.20;99.90
5059;DHT22;2548;52.050;11.036;2023-01-19T06:49:56;-2.10;99.90
5059;DHT22;2548;52.050;11.036;2023-01-19T06:52:25;-2.00;99.90
5059;DHT22;2548;52.050;11.036;2023-01-19T06:54:53;-1.90;99.90
5059;DHT22;2548;52.050;11.036;2023-01-19T06:57:20;-1.90;99.90
5059;DHT22;2548;52.050;11.036;2023-01-19T06:59:48;-1.90;99.90
5059;DHT22;2548;52.050;11.036;2023-01-19T07:02:15;-1.90;99.90
5059;DHT22;2548;52.050;11.036;2023-01-19T07:04:47;-1.90;99.90
5059;DHT22;2548;52.050;11.036;2023-01-19T07:07:15;-2.00;99.90
5059;DHT22;2548;52.050;11.036;2023-01-19T07:09:44;-2.00;99.90
5059;DHT22;2548;52.050;11.036;2023-01-19T07:12:11;-2.00;99.90
5059;DHT22;2548;52.050;11.036;2023-01-19T07:14:39;-2.10;99.90
5059;DHT22;2548;52.050;11.036;2023-01-19T07:17:07;-2.10;99.90
5059;DHT22;2548;52.050;11.036;2023-01-19T07:19:34;-2.20;99.90
5059;DHT22;2548;52.050;11.036;2023-01-19T07:22:01;-2.20;99.90
5059;DHT22;2548;52.050;11.036;2023-01-19T07:24:29;-2.10;99.90
5059;DHT22;2548;52.050;11.036;2023-01-19T07:27:00;-2.00;99.90
5059;DHT22;2548;52.050;11.036;2023-01-19T07:29:27;-1.90;99.90
5059;DHT22;2548;52.050;11.036;2023-01-19T07:31:54;-1.70;99.90
5059;DHT22;2548;52.050;11.036;2023-01-19T07:34:22;-1.60;99.90
5059;DHT22;2548;52.050;11.036;2023-01-19T07:36:50;-1.40;99.90
5059;DHT22;2548;52.050;11.036;2023-01-19T07:39:17;-1.30;99.90
5059;DHT22;2548;52.050;11.036;2023-01-19T07:41:46;-1.30;99.90
5059;DHT22;2548;52.050;11.036;2023-01-19T07:44:15;-1.20;99.90
5059;DHT22;2548;52.050;11.036;2023-01-19T07:46:43;-1.20;99.90
5059;DHT22;2548;52.050;11.036;2023-01-19T07:49:10;-1.20;99.90
5059;DHT22;2548;52.050;11.036;2023-01-19T07:51:38;-1.10;99.90
5059;DHT22;2548;52.050;11.036;2023-01-19T07:54:05;-1.00;99.90
5059;DHT22;2548;52.050;11.036;2023-01-19T07:56:33;-1.10;99.90
5059;DHT22;2548;52.050;11.036;2023-01-19T07:59:01;-1.10;99.90
5059;DHT22;2548;52.050;11.036;2023-01-19T08:01:29;-1.10;99.90
5059;DHT22;2548;52.050;11.036;2023-01-19T08:03:57;-1.10;99.90
5059;DHT22;2548;52.050;11.036;2023-01-19T08:06:29;-1.10;99.90
5059;DHT22;2548;52.050;11.036;2023-01-19T08:08:58;-1.00;99.90
5059;DHT22;2548;52.050;11.036;2023-01-19T08:11:26;-1.00;99.90
5059;DHT22;2548;52.050;11.036;2023-01-19T08:13:53;-0.90;99.90
5059;DHT22;2548;52.050;11.036;2023-01-19T08:16:21;-0.90;99.90
5059;DHT22;2548;52.050;11.036;2023-01-19T08:18:50;-0.80;99.90
5059;DHT22;2548;52.050;11.036;2023-01-19T08:21:17;-0.80;99.90
5059;DHT22;2548;52.050;11.036;2023-01-19T08:23:51;-0.70;99.90
5059;DHT22;2548;52.050;11.036;2023-01-19T08:26:19;-0.70;99.90
5059;DHT22;2548;52.050;11.036;2023-01-19T08:28:49;-0.70;99.90
5059;DHT22;2548;52.050;11.036;2023-01-19T08:31:16;-0.70;99.90
5059;DHT22;2548;52.050;11.036;2023-01-19T08:33:44;-0.70;99.90
5059;DHT22;2548;52.050;11.036;2023-01-19T08:36:12;-0.70;99.90
5059;DHT22;2548;52.050;11.036;2023-01-19T08:38:40;-0.60;99.90
5059;DHT22;2548;52.050;11.036;2023-01-19T08:41:09;-0.60;99.90
5059;DHT22;2548;52.050;11.036;2023-01-19T08:43:37;-0.60;99.90
5059;DHT22;2548;52.050;11.036;2023-01-19T08:46:05;-0.50;99.90
5059;DHT22;2548;52.050;11.036;2023-01-19T08:48:32;-0.50;99.90
5059;DHT22;2548;52.050;11.036;2023-01-19T08:51:00;-0.40;99.90
5059;DHT22;2548;52.050;11.036;2023-01-19T08:53:29;-0.30;99.90
5059;DHT22;2548;52.050;11.036;2023-01-19T08:55:57;-0.30;99.90
5059;DHT22;2548;52.050;11.036;2023-01-19T08:58:26;-0.20;99.90
5059;DHT22;2548;52.050;11.036;2023-01-19T09:00:54;-0.10;99.90
5059;DHT22;2548;52.050;11.036;2023-01-19T09:03:22;0.00;99.90
5059;DHT22;2548;52.050;11.036;2023-01-19T09:05:49;0.10;99.90
5059;DHT22;2548;52.050;11.036;2023-01-19T09:08:17;0.20;99.90
5059;DHT22;2548;52.050;11.036;2023-01-19T09:10:47;0.30;99.90
5059;DHT22;2548;52.050;11.036;2023-01-19T09:13:16;0.40;99.90
5059;DHT22;2548;52.050;11.036;2023-01-19T09:15:43;0.50;99.90
5059;DHT22;2548;52.050;11.036;2023-01-19T09:18:12;0.50;99.90
5059;DHT22;2548;52.050;11.036;2023-01-19T09:20:41;0.60;99.90
5059;DHT22;2548;52.050;11.036;2023-01-19T09:23:08;0.70;99.90
5059;DHT22;2548;52.050;11.036;2023-01-19T09:25:36;0.80;99.90
5059;DHT22;2548;52.050;11.036;2023-01-19T09:28:06;0.80;99.90
5059;DHT22;2548;52.050;11.036;2023-01-19T09:30:35;0.90;99.90
5059;DHT22;2548;52.050;11.036;2023-01-19T09:33:03;1.00;99.90
5059;DHT22;2548;52.050;11.036;2023-01-19T09:35:31;1.10;99.90
5059;DHT22;2548;52.050;11.036;2023-01-19T09:37:59;1.30;99.90
5059;DHT22;2548;52.050;11.036;2023-01-19T09:40:27;1.40;99.90
5059;DHT22;2548;52.050;11.036;2023-01-19T09:42:55;1.50;99.90
5059;DHT22;2548;52.050;11.036;2023-01-19T09:45:35;1.60;99.90
5059;DHT22;2548;52.050;11.036;2023-01-19T09:48:20;1.60;99.90
5059;DHT22;2548;52.050;11.036;2023-01-19T09:50:50;1.70;99.90
5059;DHT22;2548;52.050;11.036;2023-01-19T09:53:25;1.80;99.90
5059;DHT22;2548;52.050;11.036;2023-01-19T09:55:54;1.90;99.90
5059;DHT22;2548;52.050;11.036;2023-01-19T09:58:21;2.00;99.90
5059;DHT22;2548;52.050;11.036;2023-01-19T10:00:57;2.10;99.90
5059;DHT22;2548;52.050;11.036;2023-01-19T10:03:29;2.10;99.90
5059;DHT22;2548;52.050;11.036;2023-01-19T10:06:01;2.20;99.90
5059;DHT22;2548;52.050;11.036;2023-01-19T10:08:35;2.30;99.90
5059;DHT22;2548;52.050;11.036;2023-01-19T10:11:14;2.30;99.90
5059;DHT22;2548;52.050;11.036;2023-01-19T10:13:47;2.40;99.90
5059;DHT22;2548;52.050;11.036;2023-01-19T10:16:27;2.50;99.90
5059;DHT22;2548;52.050;11.036;2023-01-19T10:18:59;2.60;99.90
5059;DHT22;2548;52.050;11.036;2023-01-19T10:21:32;2.80;99.90
5059;DHT22;2548;52.050;11.036;2023-01-19T10:24:05;3.00;99.90
5059;DHT22;2548;52.050;11.036;2023-01-19T10:26:38;3.00;99.90
5059;DHT22;2548;52.050;11.036;2023-01-19T10:29:14;2.90;99.90
5059;DHT22;2548;52.050;11.036;2023-01-19T10:31:51;2.80;99.90
5059;DHT22;2548;52.050;11.036;2023-01-19T10:34:19;2.80;99.90
5059;DHT22;2548;52.050;11.036;2023-01-19T10:36:48;2.80;99.90
5059;DHT22;2548;52.050;11.036;2023-01-19T10:39:17;2.70;99.90
5059;DHT22;2548;52.050;11.036;2023-01-19T10:41:49;2.70;99.90
5059;DHT22;2548;52.050;11.036;2023-01-19T10:44:22;2.60;99.90
5059;DHT22;2548;52.050;11.036;2023-01-19T10:46:53;2.60;99.90
5059;DHT22;2548;52.050;11.036;2023-01-19T10:49:25;2.50;99.90
5059;DHT22;2548;52.050;11.036;2023-01-19T10:51:53;2.50;99.90
5059;DHT22;2548;52.050;11.036;2023-01-19T10:54:22;2.40;99.90
5059;DHT22;2548;52.050;11.036;2023-01-19T10:56:52;2.40;99.90
5059;DHT22;2548;52.050;11.036;2023-01-19T10:59:34;2.30;99.90
5059;DHT22;2548;52.050;11.036;2023-01-19T11:02:17;2.20;99.90
5059;DHT22;2548;52.050;11.036;2023-01-19T11:04:46;2.20;99.90
5059;DHT22;2548;52.050;11.036;2023-01-19T11:07:17;2.20;99.90
5059;DHT22;2548;52.050;11.036;2023-01-19T11:09:46;2.20;99.90
5059;DHT22;2548;52.050;11.036;2023-01-19T11:12:18;2.20;99.90
5059;DHT22;2548;52.050;11.036;2023-01-19T11:14:48;2.20;99.90
5059;DHT22;2548;52.050;11.036;2023-01-19T11:17:21;2.20;99.90
5059;DHT22;2548;52.050;11.036;2023-01-19T11:19:55;2.10;99.90
5059;DHT22;2548;52.050;11.036;2023-01-19T11:22:27;2.20;99.90
5059;DHT22;2548;52.050;11.036;2023-01-19T11:24:59;2.20;99.90
5059;DHT22;2548;52.050;11.036;2023-01-19T11:27:27;2.20;99.90
5059;DHT22;2548;52.050;11.036;2023-01-19T11:30:05;2.10;99.90
5059;DHT22;2548;52.050;11.036;2023-01-19T11:32:36;2.10;99.90
5059;DHT22;2548;52.050;11.036;2023-01-19T11:35:30;2.10;99.90
5059;DHT22;2548;52.050;11.036;2023-01-19T11:38:14;2.00;99.90
5059;DHT22;2548;52.050;11.036;2023-01-19T11:40:50;2.00;99.90
5059;DHT22;2548;52.050;11.036;2023-01-19T11:43:19;2.00;99.90
5059;DHT22;2548;52.050;11.036;2023-01-19T11:45:47;2.00;99.90
5059;DHT22;2548;52.050;11.036;2023-01-19T11:48:22;2.00;99.90
5059;DHT22;2548;52.050;11.036;2023-01-19T11:50:50;1.90;99.90
5059;DHT22;2548;52.050;11.036;2023-01-19T11:53:21;1.90;99.90
5059;DHT22;2548;52.050;11.036;2023-01-19T11:55:54;1.90;99.90
5059;DHT22;2548;52.050;11.036;2023-01-19T11:58:23;1.80;99.90
5059;DHT22;2548;52.050;11.036;2023-01-19T12:00:53;1.80;99.90
5059;DHT22;2548;52.050;11.036;2023-01-19T12:03:27;1.80;99.90
5059;DHT22;2548;52.050;11.036;2023-01-19T12:05:59;1.80;99.90
5059;DHT22;2548;52.050;11.036;2023-01-19T12:08:31;1.80;99.90
5059;DHT22;2548;52.050;11.036;2023-01-19T12:11:02;1.80;99.90
5059;DHT22;2548;52.050;11.036;2023-01-19T12:13:31;1.80;99.90
5059;DHT22;2548;52.050;11.036;2023-01-19T12:16:03;1.80;99.90
5059;DHT22;2548;52.050;11.036;2023-01-19T12:18:37;1.80;99.90
5059;DHT22;2548;52.050;11.036;2023-01-19T12:21:07;1.80;99.90
5059;DHT22;2548;52.050;11.036;2023-01-19T12:23:42;1.80;99.90
5059;DHT22;2548;52.050;11.036;2023-01-19T12:26:31;1.80;99.90
5059;DHT22;2548;52.050;11.036;2023-01-19T12:29:04;1.80;99.90
5059;DHT22;2548;52.050;11.036;2023-01-19T12:31:31;1.80;99.90
5059;DHT22;2548;52.050;11.036;2023-01-19T12:34:35;1.90;99.90
5059;DHT22;2548;52.050;11.036;2023-01-19T12:37:06;1.80;99.90
5059;DHT22;2548;52.050;11.036;2023-01-19T12:39:55;1.90;99.90
5059;DHT22;2548;52.050;11.036;2023-01-19T12:42:23;1.90;99.90
5059;DHT22;2548;52.050;11.036;2023-01-19T12:45:03;2.00;99.90
5059;DHT22;2548;52.050;11.036;2023-01-19T12:47:31;2.00;99.90
5059;DHT22;2548;52.050;11.036;2023-01-19T12:50:04;2.20;99.90
5059;DHT22;2548;52.050;11.036;2023-01-19T12:52:35;2.30;99.90
5059;DHT22;2548;52.050;11.036;2023-01-19T12:55:19;2.40;99.90
5059;DHT22;2548;52.050;11.036;2023-01-19T12:57:50;2.50;99.90
5059;DHT22;2548;52.050;11.036;2023-01-19T13:00:32;2.50;99.90
5059;DHT22;2548;52.050;11.036;2023-01-19T13:03:01;2.50;99.90
5059;DHT22;2548;52.050;11.036;2023-01-19T13:05:48;2.60;99.90
5059;DHT22;2548;52.050;11.036;2023-01-19T13:08:18;2.60;99.90
5059;DHT22;2548;52.050;11.036;2023-01-19T13:11:16;2.60;99.90
5059;DHT22;2548;52.050;11.036;2023-01-19T13:17:00;2.70;99.90
5059;DHT22;2548;52.050;11.036;2023-01-19T13:22:51;2.70;99.90
5059;DHT22;2548;52.050;11.036;2023-01-19T13:25:36;2.70;99.90
5059;DHT22;2548;52.050;11.036;2023-01-19T13:28:07;2.70;99.90
5059;DHT22;2548;52.050;11.036;2023-01-19T13:30:54;2.60;99.90
5059;DHT22;2548;52.050;11.036;2023-01-19T13:33:24;2.60;99.90
5059;DHT22;2548;52.050;11.036;2023-01-19T13:35:55;2.60;99.90
5059;DHT22;2548;52.050;11.036;2023-01-19T13:38:26;2.50;99.90
5059;DHT22;2548;52.050;11.036;2023-01-19T13:40:54;2.50;99.90
5059;DHT22;2548;52.050;11.036;2023-01-19T13:43:26;2.50;99.90
5059;DHT22;2548;52.050;11.036;2023-01-19T13:45:55;2.50;99.90
5059;DHT22;2548;52.050;11.036;2023-01-19T13:48:24;2.40;99.90
5059;DHT22;2548;52.050;11.036;2023-01-19T13:51:00;2.40;99.90
5059;DHT22;2548;52.050;11.036;2023-01-19T13:53:29;2.40;99.90
5059;DHT22;2548;52.050;11.036;2023-01-19T13:56:16;2.40;99.90
5059;DHT22;2548;52.050;11.036;2023-01-19T13:58:59;2.40;99.90
5059;DHT22;2548;52.050;11.036;2023-01-19T14:01:27;2.40;99.90
5059;DHT22;2548;52.050;11.036;2023-01-19T14:03:54;2.40;99.90
5059;DHT22;2548;52.050;11.036;2023-01-19T14:06:35;2.40;99.90
5059;DHT22;2548;52.050;11.036;2023-01-19T14:09:13;2.30;99.90
5059;DHT22;2548;52.050;11.036;2023-01-19T14:11:43;2.30;99.90
5059;DHT22;2548;52.050;11.036;2023-01-19T14:14:24;2.30;99.90
5059;DHT22;2548;52.050;11.036;2023-01-19T14:16:52;2.30;99.90
5059;DHT22;2548;52.050;11.036;2023-01-19T14:19:20;2.40;99.90
5059;DHT22;2548;52.050;11.036;2023-01-19T14:21:58;2.30;99.90
5059;DHT22;2548;52.050;11.036;2023-01-19T14:24:27;2.30;99.90
5059;DHT22;2548;52.050;11.036;2023-01-19T14:27:18;2.40;99.90
5059;DHT22;2548;52.050;11.036;2023-01-19T14:29:46;2.40;99.90
5059;DHT22;2548;52.050;11.036;2023-01-19T14:32:16;2.30;99.90
5059;DHT22;2548;52.050;11.036;2023-01-19T14:34:46;2.30;99.90
5059;DHT22;2548;52.050;11.036;2023-01-19T14:37:20;2.30;99.90
5059;DHT22;2548;52.050;11.036;2023-01-19T14:39:55;2.30;99.90
5059;DHT22;2548;52.050;11.036;2023-01-19T14:42:26;2.30;99.90
5059;DHT22;2548;52.050;11.036;2023-01-19T14:44:56;2.20;99.90
5059;DHT22;2548;52.050;11.036;2023-01-19T14:47:33;2.20;99.90
5059;DHT22;2548;52.050;11.036;2023-01-19T14:50:05;2.20;99.90
5059;DHT22;2548;52.050;11.036;2023-01-19T14:52:37;2.10;99.90
5059;DHT22;2548;52.050;11.036;2023-01-19T14:55:17;2.00;99.90
5059;DHT22;2548;52.050;11.036;2023-01-19T14:58:01;2.00;99.90
5059;DHT22;2548;52.050;11.036;2023-01-19T15:00:28;2.00;99.90
5059;DHT22;2548;52.050;11.036;2023-01-19T15:02:56;1.90;99.90
5059;DHT22;2548;52.050;11.036;2023-01-19T15:05:23;1.90;99.90
5059;DHT22;2548;52.050;11.036;2023-01-19T15:07:51;1.80;99.90
5059;DHT22;2548;52.050;11.036;2023-01-19T15:10:21;1.80;99.90
5059;DHT22;2548;52.050;11.036;2023-01-19T15:12:50;1.80;99.90
5059;DHT22;2548;52.050;11.036;2023-01-19T15:15:20;1.70;99.90
5059;DHT22;2548;52.050;11.036;2023-01-19T15:17:51;1.70;99.90
5059;DHT22;2548;52.050;11.036;2023-01-19T15:20:20;1.70;99.90
5059;DHT22;2548;52.050;11.036;2023-01-19T15:22:48;1.60;99.90
5059;DHT22;2548;52.050;11.036;2023-01-19T15:25:19;1.60;99.90
5059;DHT22;2548;52.050;11.036;2023-01-19T15:27:47;1.60;99.90
5059;DHT22;2548;52.050;11.036;2023-01-19T15:30:17;1.50;99.90
5059;DHT22;2548;52.050;11.036;2023-01-19T15:32:45;1.50;99.90
5059;DHT22;2548;52.050;11.036;2023-01-19T15:35:15;1.40;99.90
5059;DHT22;2548;52.050;11.036;2023-01-19T15:37:42;1.40;99.90
5059;DHT22;2548;52.050;11.036;2023-01-19T15:40:11;1.40;99.90
5059;DHT22;2548;52.050;11.036;2023-01-19T15:42:40;1.40;99.90
5059;DHT22;2548;52.050;11.036;2023-01-19T15:45:30;1.30;99.90
5059;DHT22;2548;52.050;11.036;2023-01-19T15:47:57;1.30;99.90
5059;DHT22;2548;52.050;11.036;2023-01-19T15:50:25;1.30;99.90
5059;DHT22;2548;52.050;11.036;2023-01-19T15:52:52;1.30;99.90
5059;DHT22;2548;52.050;11.036;2023-01-19T15:55:20;1.30;99.90
5059;DHT22;2548;52.050;11.036;2023-01-19T15:57:49;1.20;99.90
5059;DHT22;2548;52.050;11.036;2023-01-19T16:00:17;1.20;99.90
5059;DHT22;2548;52.050;11.036;2023-01-19T16:02:45;1.10;99.90
5059;DHT22;2548;52.050;11.036;2023-01-19T16:05:12;1.10;99.90
5059;DHT22;2548;52.050;11.036;2023-01-19T16:07:40;1.10;99.90
5059;DHT22;2548;52.050;11.036;2023-01-19T16:10:08;1.10;99.90
5059;DHT22;2548;52.050;11.036;2023-01-19T16:12:37;1.10;99.90
5059;DHT22;2548;52.050;11.036;2023-01-19T16:15:07;1.10;99.90
5059;DHT22;2548;52.050;11.036;2023-01-19T16:17:34;1.10;99.90
5059;DHT22;2548;52.050;11.036;2023-01-19T16:20:02;1.10;99.90